createdAt,value
2018-08-22T00:06:05.265Z,215.82
2018-08-22T00:16:59.209Z,215.82
2018-08-22T00:27:54.114Z,215.82
2018-08-22T00:38:43.944Z,215.82
2018-08-22T00:49:35.367Z,215.82
2018-08-22T01:00:32.478Z,215.82
2018-08-22T01:11:25.568Z,215.82
2018-08-22T01:22:20.024Z,215.82
2018-08-22T01:33:16.054Z,215.82
2018-08-22T01:44:06.423Z,215.82
2018-08-22T01:54:53.971Z,215.82
2018-08-22T02:05:42.588Z,215.82
2018-08-22T02:16:30.317Z,215.82
2018-08-22T02:27:16.805Z,215.82
2018-08-22T02:37:55.871Z,215.82
2018-08-22T02:48:54.782Z,215.82
2018-08-22T02:59:57.959Z,215.82
2018-08-22T03:10:53.905Z,215.82
2018-08-22T03:21:51.553Z,215.82
2018-08-22T03:32:52.850Z,215.82
2018-08-22T03:43:51.409Z,215.82
2018-08-22T03:54:52.306Z,215.82
2018-08-22T04:05:39.561Z,215.82
2018-08-22T04:16:38.156Z,215.82
2018-08-22T04:27:30.197Z,215.82
2018-08-22T04:38:32.313Z,215.82
2018-08-22T04:49:35.102Z,215.82
2018-08-22T05:00:31.832Z,215.82
2018-08-22T05:11:19.707Z,215.82
2018-08-22T05:22:20.612Z,215.82
2018-08-22T05:33:10.790Z,215.82
2018-08-22T05:44:09.629Z,215.82
2018-08-22T05:55:11.474Z,215.82
2018-08-22T06:06:12.049Z,215.82
2018-08-22T06:17:06.255Z,215.82
2018-08-22T06:28:04.415Z,215.82
2018-08-22T06:39:05.888Z,215.82
2018-08-22T06:49:56.701Z,215.82
2018-08-22T07:00:51.609Z,215.82
2018-08-22T07:11:45.019Z,215.82
2018-08-22T07:22:42.341Z,215.82
2018-08-22T07:33:43.872Z,215.82
2018-08-22T07:44:42.816Z,215.82
2018-08-22T07:55:39.160Z,215.82
2018-08-22T08:06:37.391Z,215.82
2018-08-22T08:17:34.952Z,215.82
2018-08-22T08:28:26.615Z,215.82
2018-08-22T08:39:19.910Z,215.82
2018-08-22T08:50:17.563Z,215.82
2018-08-22T09:01:16.359Z,215.82
2018-08-22T09:12:18.248Z,215.82
2018-08-22T09:23:14.681Z,215.82
2018-08-22T09:34:10.640Z,215.82
2018-08-22T09:45:07.443Z,215.82
2018-08-22T09:56:08.703Z,215.82
2018-08-22T10:07:07.404Z,215.82
2018-08-22T10:18:02.159Z,215.82
2018-08-22T10:28:46.180Z,215.82
2018-08-22T10:39:45.953Z,215.82
2018-08-22T10:50:40.659Z,215.82
2018-08-22T11:01:36.753Z,215.82
2018-08-22T11:12:23.072Z,215.82
2018-08-22T11:23:09.423Z,215.82
2018-08-22T11:33:47.468Z,215.82
2018-08-22T11:44:28.673Z,215.82
2018-08-22T11:55:14.068Z,215.82
2018-08-22T12:05:56.848Z,215.82
2018-08-22T12:16:51.177Z,215.82
2018-08-22T12:27:51.076Z,215.82
2018-08-22T12:38:51.903Z,215.82
2018-08-22T12:49:50.757Z,215.82
2018-08-22T13:00:33.832Z,215.82
2018-08-22T13:11:25.378Z,215.82
2018-08-22T13:22:01.445Z,215.82
2018-08-22T13:32:45.420Z,215.82
2018-08-22T13:43:24.371Z,215.82
2018-08-22T13:54:00.260Z,215.82
2018-08-22T14:04:33.224Z,215.82
2018-08-22T14:14:56.257Z,215.82
2018-08-22T14:25:44.077Z,215.82
2018-08-22T14:36:31.127Z,215.82
2018-08-22T14:47:16.757Z,215.82
2018-08-22T14:57:50.894Z,215.82
2018-08-22T15:08:36.276Z,33.80
2018-08-22T15:19:22.287Z,32.14
2018-08-22T15:30:14.452Z,31.75
2018-08-22T15:41:03.612Z,32.24
2018-08-22T15:52:03.506Z,31.75
2018-08-22T16:02:51.407Z,30.28
2018-08-22T16:13:33.875Z,28.72
2018-08-22T16:24:28.157Z,28.23
2018-08-22T16:35:26.946Z,27.74
2018-08-22T16:46:24.806Z,27.05
2018-08-22T16:57:17.481Z,26.66
2018-08-22T17:08:14.801Z,26.27
2018-08-22T17:19:16.426Z,25.78
2018-08-22T17:30:14.952Z,25.00
2018-08-22T17:41:12.896Z,24.22
2018-08-22T17:52:13.543Z,23.63
2018-08-22T18:03:09.589Z,23.34
2018-08-22T18:14:08.936Z,22.95
2018-08-22T18:25:03.673Z,22.56
2018-08-22T18:36:03.144Z,22.17
2018-08-22T18:47:02.704Z,21.77
2018-08-22T18:57:59.148Z,21.38
2018-08-22T19:08:57.683Z,21.09
2018-08-22T19:19:52.567Z,20.80
2018-08-22T19:30:50.069Z,20.50
2018-08-22T19:41:46.366Z,20.31
2018-08-22T19:52:44.133Z,20.01
2018-08-22T20:03:35.051Z,19.82
2018-08-22T20:14:32.739Z,19.62
2018-08-22T20:25:32.585Z,19.52
2018-08-22T20:36:31.249Z,19.43
2018-08-22T20:47:23.225Z,19.23
2018-08-22T20:58:22.345Z,19.23
2018-08-22T21:09:17.089Z,19.03
2018-08-22T21:20:14.901Z,18.94
2018-08-22T21:31:06.784Z,18.84
2018-08-22T21:42:02.905Z,18.84
2018-08-22T21:53:03.764Z,18.64
2018-08-22T22:04:04.207Z,18.55
2018-08-22T22:15:01.408Z,18.45
2018-08-22T22:26:01.834Z,18.35
2018-08-22T22:37:03.266Z,18.25
2018-08-22T22:48:05.161Z,18.15
2018-08-22T22:59:06.999Z,18.06
2018-08-22T23:10:07.831Z,17.96
2018-08-22T23:21:10.403Z,17.76
2018-08-22T23:32:10.044Z,17.76
2018-08-22T23:43:12.552Z,17.67
2018-08-22T23:54:12.974Z,17.57
